Capinopolis, Brazil
Current Conditions -  °F | °C
As of 7:15 PM on Saturday 22 Nov 2014 (Local Time) from SBUL Reporting Station
Thunderstorm Thunderstorm  
Wind Chill: 70°   Ceiling: 1000
Heat Index: 70°   Visibility: 4mi
Dew Point: 66°   Wind: 23mph
Humidity: 88%   Direction: 160°SSE
Pressure: NA   Gusts: NA
Location:  18.68°S, 49.57°W
Report Text: SBUL 222115Z 16020KT 6000 2000NE +TSRA BKN010 SCT045CB 21/19 Q1014
Loading
Personal Weather Stations






























Interactive Weather Map New forecast layout! Learn more

10-Day Weather Forecast

Advertisements
Track Severe Weather on mobile